createdAt,value
2023-03-06T00:01:18.576Z,99696.31
2023-03-06T00:03:30.498Z,99695.79
2023-03-06T00:05:42.456Z,99695.25
2023-03-06T00:07:54.616Z,99697.05
2023-03-06T00:10:06.510Z,99695.97
2023-03-06T00:12:18.302Z,99692.13
2023-03-06T00:14:30.395Z,99692.84
2023-03-06T00:16:42.187Z,99688.91
2023-03-06T00:18:53.772Z,99688.46
2023-03-06T00:21:09.061Z,99688.41
2023-03-06T00:23:21.139Z,99682.44
2023-03-06T00:25:36.920Z,99687.99
2023-03-06T00:27:49.328Z,99684.05
2023-03-06T00:30:02.038Z,99678.00
2023-03-06T00:32:13.969Z,99680.04
2023-03-06T00:34:26.232Z,99679.55
2023-03-06T00:36:38.434Z,99675.39
2023-03-06T00:38:50.732Z,99675.37
2023-03-06T00:41:10.798Z,99672.88
2023-03-06T00:43:22.715Z,99668.31
2023-03-06T00:45:34.554Z,99667.01
2023-03-06T00:47:46.810Z,99662.34
2023-03-06T00:50:00.226Z,99658.81
2023-03-06T00:52:12.899Z,99654.75
2023-03-06T00:54:24.525Z,99650.45
2023-03-06T00:56:36.211Z,99650.07
2023-03-06T00:58:47.900Z,99646.60
2023-03-06T01:00:59.746Z,99644.97
2023-03-06T01:03:11.989Z,99643.66
2023-03-06T01:05:25.050Z,99636.61
2023-03-06T01:07:37.205Z,99635.84
2023-03-06T01:09:49.406Z,99636.90
2023-03-06T01:12:01.652Z,99634.95
2023-03-06T01:14:13.394Z,99632.95
2023-03-06T01:16:25.258Z,99632.39
2023-03-06T01:18:38.508Z,99632.52
2023-03-06T01:20:50.197Z,99625.07
2023-03-06T01:23:01.883Z,99624.78
2023-03-06T01:25:14.101Z,99620.70
2023-03-06T01:27:26.289Z,99618.85
2023-03-06T01:29:38.275Z,99618.17
2023-03-06T01:31:50.126Z,99616.57
2023-03-06T01:34:02.720Z,99615.83
2023-03-06T01:36:14.882Z,99616.39
2023-03-06T01:38:27.187Z,99614.04
2023-03-06T01:40:39.385Z,99616.23
2023-03-06T01:42:51.586Z,99611.56
2023-03-06T01:45:35.739Z,99611.69
2023-03-06T01:47:47.625Z,99611.45
2023-03-06T01:50:01.982Z,99607.34
2023-03-06T01:52:17.419Z,99603.37
2023-03-06T01:54:33.162Z,99602.35
2023-03-06T01:56:48.866Z,99600.28
2023-03-06T01:59:01.728Z,99600.89
2023-03-06T02:01:14.814Z,99597.44
2023-03-06T02:03:28.583Z,99594.09
2023-03-06T02:05:42.318Z,99589.34
2023-03-06T02:07:55.236Z,99589.08
2023-03-06T02:10:08.051Z,99579.21
2023-03-06T02:12:21.900Z,99578.09
2023-03-06T02:14:35.116Z,99572.02
2023-03-06T02:16:48.161Z,99575.19
2023-03-06T02:19:02.586Z,99578.52
2023-03-06T02:21:24.819Z,99572.95
2023-03-06T02:24:00.077Z,99572.52
2023-03-06T02:26:15.639Z,99567.58
2023-03-06T02:28:28.160Z,99565.34
2023-03-06T02:30:42.051Z,99563.80
2023-03-06T02:32:54.289Z,99556.90
2023-03-06T02:35:07.309Z,99559.09
2023-03-06T02:37:19.708Z,99560.21
2023-03-06T02:39:36.108Z,99555.42
2023-03-06T02:41:48.413Z,99552.86
2023-03-06T02:44:00.608Z,99552.72
2023-03-06T02:46:14.081Z,99544.80
2023-03-06T02:48:26.132Z,99550.10
2023-03-06T02:50:37.770Z,99546.10
2023-03-06T02:52:49.503Z,99547.89
2023-03-06T02:55:01.191Z,99550.30
2023-03-06T02:57:13.388Z,99552.82
2023-03-06T02:59:26.512Z,99552.98
2023-03-06T03:01:39.129Z,99555.39
2023-03-06T03:03:51.014Z,99545.81
2023-03-06T03:06:07.305Z,99548.39
2023-03-06T03:08:19.606Z,99543.98
2023-03-06T03:10:32.625Z,99543.89
2023-03-06T03:12:44.828Z,99532.48
2023-03-06T03:14:57.641Z,99531.66
2023-03-06T03:17:09.942Z,99526.20
2023-03-06T03:19:21.587Z,99523.29
2023-03-06T03:21:33.521Z,99521.48
2023-03-06T03:23:45.423Z,99520.06
2023-03-06T03:26:06.432Z,99516.52
2023-03-06T03:28:19.133Z,99520.80
2023-03-06T03:30:31.441Z,99525.35
2023-03-06T03:32:43.736Z,99521.73
2023-03-06T03:34:56.553Z,99519.64
2023-03-06T03:37:09.469Z,99518.68
2023-03-06T03:39:23.212Z,99518.36
2023-03-06T03:41:35.212Z,99514.44
2023-03-06T03:43:49.556Z,99514.09
2023-03-06T03:46:01.237Z,99507.44
2023-03-06T03:48:13.655Z,99504.64
2023-03-06T03:50:26.046Z,99503.42
2023-03-06T03:52:38.658Z,99507.29
2023-03-06T03:54:50.854Z,99507.02
2023-03-06T03:57:03.768Z,99505.71
2023-03-06T03:59:18.425Z,99498.80
2023-03-06T04:01:46.147Z,99498.73
2023-03-06T04:03:58.291Z,99499.79
2023-03-06T04:06:10.588Z,99497.50
2023-03-06T04:08:22.692Z,99497.33
2023-03-06T04:10:34.678Z,99492.29
2023-03-06T04:12:46.776Z,99492.95
2023-03-06T04:14:59.233Z,99490.67
2023-03-06T04:17:13.539Z,99489.08
2023-03-06T04:19:25.529Z,99484.18
2023-03-06T04:21:37.688Z,99483.05
2023-03-06T04:23:50.235Z,99479.18
2023-03-06T04:26:02.124Z,99478.63
2023-03-06T04:28:14.842Z,99477.23
2023-03-06T04:30:26.933Z,99478.48
2023-03-06T04:32:39.059Z,99475.73
2023-03-06T04:34:51.237Z,99471.47
2023-03-06T04:37:03.126Z,99464.83
2023-03-06T04:39:15.528Z,99464.16
2023-03-06T04:41:27.728Z,99460.86
2023-03-06T04:43:39.726Z,99460.43
2023-03-06T04:45:51.342Z,99456.67
2023-03-06T04:48:04.122Z,99456.31
2023-03-06T04:50:18.268Z,99456.59
2023-03-06T04:52:30.469Z,99454.94
2023-03-06T04:54:43.286Z,99449.95
2023-03-06T04:56:55.275Z,99453.06
2023-03-06T04:59:07.395Z,99453.00
2023-03-06T05:01:19.553Z,99445.52
2023-03-06T05:03:31.569Z,99438.77
2023-03-06T05:05:48.374Z,99438.19
2023-03-06T05:08:02.207Z,99436.85
2023-03-06T05:10:16.648Z,99438.23
2023-03-06T05:12:28.352Z,99439.73
2023-03-06T05:14:40.650Z,99432.77
2023-03-06T05:16:52.336Z,99432.98
2023-03-06T05:19:04.447Z,99436.20
2023-03-06T05:21:16.123Z,99434.48
2023-03-06T05:23:29.675Z,99428.26
2023-03-06T05:25:42.269Z,99427.14
2023-03-06T05:27:54.578Z,99422.77
2023-03-06T05:30:08.622Z,99419.83
2023-03-06T05:32:21.232Z,99421.69
2023-03-06T05:34:33.106Z,99418.02
2023-03-06T05:36:44.692Z,99413.10
2023-03-06T05:38:56.712Z,99416.83
2023-03-06T05:41:13.026Z,99414.77
2023-03-06T05:43:24.703Z,99413.40
2023-03-06T05:45:36.718Z,99412.83
2023-03-06T05:47:48.666Z,99410.26
2023-03-06T05:50:00.353Z,99411.25
2023-03-06T05:52:13.474Z,99408.55
2023-03-06T05:54:26.409Z,99409.41
2023-03-06T05:56:38.286Z,99409.28
2023-03-06T05:58:51.200Z,99405.10
2023-03-06T06:01:18.856Z,99407.96
2023-03-06T06:03:30.476Z,99405.79
2023-03-06T06:05:42.848Z,99406.91
2023-03-06T06:07:54.738Z,99405.39
2023-03-06T06:10:07.963Z,99404.29
2023-03-06T06:12:19.959Z,99399.05
2023-03-06T06:14:34.593Z,99399.09
2023-03-06T06:16:46.205Z,99397.83
2023-03-06T06:18:58.518Z,99393.68
2023-03-06T06:21:12.544Z,99395.14
2023-03-06T06:23:24.745Z,99392.96
2023-03-06T06:25:37.668Z,99390.14
2023-03-06T06:27:49.344Z,99391.15
2023-03-06T06:30:01.344Z,99396.63
2023-03-06T06:32:13.248Z,99389.63
2023-03-06T06:34:25.739Z,99387.99
2023-03-06T06:36:38.458Z,99388.05
2023-03-06T06:38:50.591Z,99387.36
2023-03-06T06:41:33.338Z,99388.69
2023-03-06T06:43:36.146Z,99387.33
2023-03-06T06:45:49.583Z,99387.96
2023-03-06T06:48:02.241Z,99385.78
2023-03-06T06:50:14.699Z,99387.31
2023-03-06T06:52:26.578Z,99381.10
2023-03-06T06:54:38.995Z,99381.61
2023-03-06T06:56:51.390Z,99383.61
2023-03-06T06:59:16.122Z,99378.78
2023-03-06T07:01:29.618Z,99375.20
2023-03-06T07:03:41.927Z,99377.33
2023-03-06T07:05:56.177Z,99377.52
2023-03-06T07:08:07.849Z,99378.71
2023-03-06T07:10:21.009Z,99375.38
2023-03-06T07:12:35.273Z,99375.30
2023-03-06T07:14:47.056Z,99373.74
2023-03-06T07:16:59.005Z,99370.84
2023-03-06T07:19:11.406Z,99369.03
2023-03-06T07:21:23.095Z,99370.27
2023-03-06T07:23:35.541Z,99369.95
2023-03-06T07:25:47.187Z,99368.48
2023-03-06T07:27:59.019Z,99371.21
2023-03-06T07:30:13.689Z,99370.55
2023-03-06T07:32:25.673Z,99369.70
2023-03-06T07:34:38.137Z,99375.27
2023-03-06T07:36:51.156Z,99379.45
2023-03-06T07:39:03.150Z,99376.15
2023-03-06T07:41:16.615Z,99377.92
2023-03-06T07:43:28.267Z,99376.09
2023-03-06T07:45:47.042Z,99374.89
2023-03-06T07:47:58.916Z,99376.21
2023-03-06T07:50:11.730Z,99376.90
2023-03-06T07:52:24.131Z,99378.98
2023-03-06T07:54:35.922Z,99375.48
2023-03-06T07:56:50.989Z,99372.81
2023-03-06T07:59:03.509Z,99376.64
2023-03-06T08:01:23.653Z,99379.23
2023-03-06T08:03:36.251Z,99377.53
2023-03-06T08:05:47.890Z,99378.14
2023-03-06T08:07:59.472Z,99375.66
2023-03-06T08:10:16.064Z,99374.63
2023-03-06T08:12:27.963Z,99375.38
2023-03-06T08:14:39.640Z,99375.66
2023-03-06T08:16:52.045Z,99374.77
2023-03-06T08:19:03.838Z,99374.73
2023-03-06T08:21:21.684Z,99371.92
2023-03-06T08:23:34.627Z,99369.66
2023-03-06T08:25:46.578Z,99371.39
2023-03-06T08:27:58.266Z,99375.00
2023-03-06T08:30:10.716Z,99374.67
2023-03-06T08:32:22.672Z,99366.88
2023-03-06T08:34:34.759Z,99368.13
2023-03-06T08:36:46.398Z,99367.52
2023-03-06T08:38:58.750Z,99368.63
2023-03-06T08:41:10.539Z,99371.34
2023-03-06T08:43:22.991Z,99367.05
2023-03-06T08:45:34.895Z,99367.55
2023-03-06T08:47:46.525Z,99368.35
2023-03-06T08:50:00.576Z,99373.13
2023-03-06T08:52:12.688Z,99373.48
2023-03-06T08:54:24.964Z,99371.91
2023-03-06T08:56:36.649Z,99370.21
2023-03-06T08:58:48.855Z,99369.80
2023-03-06T09:01:00.660Z,99373.39
2023-03-06T09:03:12.738Z,99378.73
2023-03-06T09:05:25.261Z,99378.52
2023-03-06T09:07:37.145Z,99376.88
2023-03-06T09:09:49.135Z,99380.86
2023-03-06T09:12:04.403Z,99382.14
2023-03-06T09:14:16.703Z,99382.07
2023-03-06T09:16:28.706Z,99384.94
2023-03-06T09:18:41.211Z,99383.35
2023-03-06T09:20:52.790Z,99386.36
2023-03-06T09:23:04.788Z,99390.10
2023-03-06T09:25:20.586Z,99391.61
2023-03-06T09:27:32.379Z,99371.13
2023-03-06T09:29:44.052Z,99383.38
2023-03-06T09:31:55.846Z,99397.85
2023-03-06T09:34:07.946Z,99394.65
2023-03-06T09:36:22.915Z,99387.20
2023-03-06T09:38:35.306Z,99387.83
2023-03-06T09:40:50.068Z,99383.86
2023-03-06T09:43:02.266Z,99382.52
2023-03-06T09:45:14.567Z,99384.47
2023-03-06T09:48:03.853Z,99393.57
2023-03-06T09:50:35.694Z,99392.35
2023-03-06T09:53:06.382Z,99392.45
2023-03-06T09:55:22.207Z,99387.08
2023-03-06T09:57:42.653Z,99386.95
2023-03-06T09:59:57.842Z,99381.10
2023-03-06T10:02:20.694Z,99384.86
2023-03-06T10:04:35.517Z,99384.21
2023-03-06T10:06:51.841Z,99384.80
2023-03-06T10:09:14.631Z,99385.24
2023-03-06T10:11:36.043Z,99388.13
2023-03-06T10:13:57.662Z,99386.13
2023-03-06T10:16:22.668Z,99388.02
2023-03-06T10:18:38.551Z,99381.41
2023-03-06T10:21:19.497Z,99380.88
2023-03-06T10:23:40.944Z,99376.59
2023-03-06T10:26:13.448Z,99378.53
2023-03-06T10:28:47.219Z,99375.30
2023-03-06T10:31:11.106Z,99377.40
2023-03-06T10:33:48.902Z,99374.48
2023-03-06T10:36:00.623Z,99375.27
2023-03-06T10:38:22.378Z,99370.12
2023-03-06T10:40:47.714Z,99370.66
2023-03-06T10:43:11.070Z,99372.17
2023-03-06T10:45:23.528Z,99370.25
2023-03-06T10:47:36.970Z,99369.30
2023-03-06T10:49:59.924Z,99372.86
2023-03-06T10:52:15.034Z,99377.92
2023-03-06T10:54:31.597Z,99369.38
2023-03-06T10:56:51.553Z,99371.70
2023-03-06T10:59:17.195Z,99373.67
2023-03-06T11:01:30.827Z,99368.11
2023-03-06T11:03:42.447Z,99367.73
2023-03-06T11:06:37.245Z,99367.39
2023-03-06T11:08:51.256Z,99367.33
2023-03-06T11:11:08.707Z,99365.38
2023-03-06T11:13:26.203Z,99366.82
2023-03-06T11:15:38.533Z,99359.92
2023-03-06T11:17:52.580Z,99360.19
2023-03-06T11:20:50.904Z,99360.76
2023-03-06T11:23:14.020Z,99357.02
2023-03-06T11:25:32.595Z,99356.83
2023-03-06T11:27:48.101Z,99356.73
2023-03-06T11:30:04.028Z,99351.68
2023-03-06T11:32:29.169Z,99349.51
2023-03-06T11:34:59.254Z,99348.48
2023-03-06T11:37:35.794Z,99348.64
2023-03-06T11:40:06.651Z,99345.27
2023-03-06T11:42:39.784Z,99346.91
2023-03-06T11:45:03.140Z,99347.55
2023-03-06T11:47:39.322Z,99339.37
2023-03-06T11:50:34.981Z,99341.27
2023-03-06T11:52:58.709Z,99341.83
2023-03-06T11:55:16.714Z,99341.58
2023-03-06T11:57:46.501Z,99342.16
2023-03-06T12:00:18.007Z,99339.83
2023-03-06T12:02:34.871Z,99343.02
2023-03-06T12:05:07.655Z,99343.92
2023-03-06T12:07:34.107Z,99346.78
2023-03-06T12:10:01.336Z,99346.98
2023-03-06T12:12:44.668Z,99346.84
2023-03-06T12:15:21.743Z,99347.14
2023-03-06T12:17:58.856Z,99344.02
2023-03-06T12:20:34.579Z,99344.00
2023-03-06T12:22:57.688Z,99343.30
2023-03-06T12:25:27.138Z,99346.45
2023-03-06T12:28:06.350Z,99344.73
2023-03-06T12:30:52.294Z,99342.75
2023-03-06T12:33:31.511Z,99338.66
2023-03-06T12:36:11.647Z,99342.86
2023-03-06T12:38:26.612Z,99346.59
2023-03-06T12:40:48.313Z,99345.04
2023-03-06T12:43:19.990Z,99345.52
2023-03-06T12:45:37.193Z,99346.17
2023-03-06T12:47:52.490Z,99347.73
2023-03-06T12:50:17.313Z,99345.94
2023-03-06T12:52:31.643Z,99346.19
2023-03-06T12:54:43.528Z,99345.71
2023-03-06T12:56:57.874Z,99347.59
2023-03-06T12:59:44.119Z,99339.20
2023-03-06T13:02:09.609Z,99341.40
2023-03-06T13:04:48.328Z,99344.54
2023-03-06T13:07:16.017Z,99347.02
2023-03-06T13:09:58.882Z,99344.89
2023-03-06T13:12:17.431Z,99342.34
2023-03-06T13:14:42.309Z,99343.11
2023-03-06T13:17:25.480Z,99340.05
2023-03-06T13:19:37.859Z,99337.81
2023-03-06T13:21:56.304Z,99332.42
2023-03-06T13:24:19.457Z,99331.40
2023-03-06T13:26:32.279Z,99332.65
2023-03-06T13:28:50.545Z,99328.06
2023-03-06T13:31:02.669Z,99328.71
2023-03-06T13:33:26.787Z,99323.73
2023-03-06T13:35:41.961Z,99328.03
2023-03-06T13:37:55.388Z,99330.74
2023-03-06T13:40:11.376Z,99327.90
2023-03-06T13:42:37.601Z,99327.79
2023-03-06T13:44:52.477Z,99332.52
2023-03-06T13:47:08.655Z,99328.94
2023-03-06T13:49:23.212Z,99331.55
2023-03-06T13:51:37.724Z,99328.98
2023-03-06T13:54:14.743Z,99329.95
2023-03-06T13:56:39.131Z,99324.35
2023-03-06T13:59:18.055Z,99321.38
2023-03-06T14:01:44.447Z,99325.64
2023-03-06T14:04:33.346Z,99325.70
2023-03-06T14:07:08.687Z,99324.56
2023-03-06T14:09:30.009Z,99328.38
2023-03-06T14:11:52.239Z,99327.83
2023-03-06T14:14:04.652Z,99327.36
2023-03-06T14:16:25.499Z,99325.74
2023-03-06T14:18:43.995Z,99327.79
2023-03-06T14:21:22.726Z,99325.53
2023-03-06T14:23:42.733Z,99326.53
2023-03-06T14:26:20.901Z,99326.33
2023-03-06T14:28:34.638Z,99323.83
2023-03-06T14:30:54.430Z,99325.17
2023-03-06T14:33:11.461Z,99327.08
2023-03-06T14:35:32.356Z,99325.02
2023-03-06T14:37:48.492Z,99324.17
2023-03-06T14:40:00.626Z,99326.00
2023-03-06T14:42:19.104Z,99328.96
2023-03-06T14:44:31.168Z,99325.31
2023-03-06T14:46:43.628Z,99326.68
2023-03-06T14:49:01.266Z,99327.38
2023-03-06T14:51:52.115Z,99330.83
2023-03-06T14:54:04.832Z,99326.98
2023-03-06T14:56:20.738Z,99326.60
2023-03-06T14:58:45.093Z,99329.71
2023-03-06T15:01:02.117Z,99331.16
2023-03-06T15:03:21.991Z,99330.13
2023-03-06T15:05:33.810Z,99334.34
2023-03-06T15:07:45.873Z,99332.80
2023-03-06T15:09:58.476Z,99331.95
2023-03-06T15:12:25.728Z,99334.73
2023-03-06T15:14:40.882Z,99333.52
2023-03-06T15:16:52.791Z,99328.00
2023-03-06T15:19:05.094Z,99327.09
2023-03-06T15:21:22.633Z,99329.59
2023-03-06T15:23:40.250Z,99329.58
2023-03-06T15:25:55.062Z,99332.63
2023-03-06T15:28:54.298Z,99332.34
2023-03-06T15:31:23.429Z,99333.86
2023-03-06T15:33:36.009Z,99333.70
2023-03-06T15:36:02.129Z,99336.05
2023-03-06T15:38:44.752Z,99332.59
2023-03-06T15:41:00.664Z,99330.16
2023-03-06T15:43:12.609Z,99332.16
2023-03-06T15:45:27.939Z,99328.66
2023-03-06T15:47:40.426Z,99332.52
2023-03-06T15:49:53.428Z,99334.20
2023-03-06T15:52:07.322Z,99336.02
2023-03-06T15:54:19.775Z,99336.29
2023-03-06T15:56:35.401Z,99335.31
2023-03-06T15:58:47.869Z,99334.43
2023-03-06T16:00:59.807Z,99330.95
2023-03-06T16:03:12.160Z,99331.17
2023-03-06T16:05:24.562Z,99332.91
2023-03-06T16:07:36.456Z,99328.40
2023-03-06T16:09:49.016Z,99333.93
2023-03-06T16:12:01.389Z,99338.39
2023-03-06T16:14:21.177Z,99337.23
2023-03-06T16:16:34.803Z,99334.67
2023-03-06T16:18:46.999Z,99335.91
2023-03-06T16:20:59.273Z,99336.52
2023-03-06T16:23:11.266Z,99338.01
2023-03-06T16:25:26.431Z,99336.73
2023-03-06T16:27:39.724Z,99338.31
2023-03-06T16:29:53.187Z,99331.87
2023-03-06T16:32:05.983Z,99326.55
2023-03-06T16:34:19.950Z,99330.67
2023-03-06T16:36:31.834Z,99330.95
2023-03-06T16:38:45.571Z,99333.80
2023-03-06T16:40:57.672Z,99336.15
2023-03-06T16:43:10.888Z,99335.19
2023-03-06T16:45:24.013Z,99331.46
2023-03-06T16:47:36.405Z,99329.49
2023-03-06T16:49:48.206Z,99332.85
2023-03-06T16:52:00.537Z,99333.19
2023-03-06T16:54:12.901Z,99328.45
2023-03-06T16:56:24.729Z,99334.84
2023-03-06T16:58:36.359Z,99336.31
2023-03-06T17:00:47.935Z,99341.40
2023-03-06T17:03:01.610Z,99339.36
2023-03-06T17:05:13.407Z,99342.00
2023-03-06T17:07:25.087Z,99346.13
2023-03-06T17:09:37.184Z,99350.81
2023-03-06T17:11:49.280Z,99348.47
2023-03-06T17:14:02.023Z,99348.44
2023-03-06T17:16:16.645Z,99350.94
2023-03-06T17:18:30.470Z,99364.65
2023-03-06T17:20:49.041Z,99364.88
2023-03-06T17:23:01.857Z,99360.02
2023-03-06T17:25:14.050Z,99362.56
2023-03-06T17:27:25.842Z,99366.07
2023-03-06T17:29:37.530Z,99362.91
2023-03-06T17:31:49.525Z,99361.79
2023-03-06T17:34:01.457Z,99366.84
2023-03-06T17:36:14.767Z,99368.83
2023-03-06T17:38:27.673Z,99374.13
2023-03-06T17:40:39.753Z,99374.70
2023-03-06T17:42:51.747Z,99375.30
2023-03-06T17:45:05.710Z,99376.00
2023-03-06T17:47:17.790Z,99375.60
2023-03-06T17:49:30.904Z,99376.91
2023-03-06T17:51:42.904Z,99370.35
2023-03-06T17:53:55.820Z,99373.48
2023-03-06T17:56:41.108Z,99376.42
2023-03-06T17:59:02.059Z,99377.15
2023-03-06T18:01:20.687Z,99375.35
2023-03-06T18:03:32.640Z,99376.90
2023-03-06T18:05:46.884Z,99374.84
2023-03-06T18:07:58.470Z,99377.86
2023-03-06T18:10:13.340Z,99380.20
2023-03-06T18:12:26.965Z,99377.19
2023-03-06T18:14:40.700Z,99375.63
2023-03-06T18:16:53.425Z,99374.27
2023-03-06T18:19:05.507Z,99374.33
2023-03-06T18:21:17.813Z,99373.10
2023-03-06T18:23:30.625Z,99373.26
2023-03-06T18:25:43.343Z,99371.16
2023-03-06T18:27:55.539Z,99369.60
2023-03-06T18:30:08.144Z,99369.58
2023-03-06T18:32:31.619Z,99369.04
2023-03-06T18:35:50.442Z,99371.41
2023-03-06T18:38:11.094Z,99370.20
2023-03-06T18:40:47.511Z,99374.27
2023-03-06T18:42:59.962Z,99376.63
2023-03-06T18:45:19.827Z,99379.53
2023-03-06T18:47:35.921Z,99381.17
2023-03-06T18:49:48.865Z,99378.68
2023-03-06T18:52:04.219Z,99377.09
2023-03-06T18:54:17.868Z,99375.29
2023-03-06T18:56:35.188Z,99377.00
2023-03-06T18:58:50.860Z,99378.06
2023-03-06T19:01:07.567Z,99379.77
2023-03-06T19:03:20.162Z,99380.21
2023-03-06T19:05:32.660Z,99380.33
2023-03-06T19:07:48.147Z,99384.48
2023-03-06T19:10:04.125Z,99385.64
2023-03-06T19:12:17.543Z,99385.95
2023-03-06T19:14:30.090Z,99384.95
2023-03-06T19:16:42.398Z,99385.18
2023-03-06T19:19:25.842Z,99382.45
2023-03-06T19:21:36.500Z,99386.48
2023-03-06T19:23:48.864Z,99384.73
2023-03-06T19:26:01.067Z,99387.27
2023-03-06T19:28:13.366Z,99386.36
2023-03-06T19:30:25.976Z,99387.15
2023-03-06T19:32:38.200Z,99393.57
2023-03-06T19:34:50.076Z,99390.81
2023-03-06T19:37:01.658Z,99395.73
2023-03-06T19:39:14.161Z,99397.38
2023-03-06T19:41:27.281Z,99396.92
2023-03-06T19:43:40.959Z,99398.30
2023-03-06T19:45:52.960Z,99407.08
2023-03-06T19:48:07.816Z,99405.77
2023-03-06T19:50:33.238Z,99407.33
2023-03-06T19:52:46.557Z,99409.74
2023-03-06T19:54:58.338Z,99410.85
2023-03-06T19:57:10.412Z,99414.10
2023-03-06T19:59:28.023Z,99416.82
2023-03-06T20:01:40.655Z,99419.00
2023-03-06T20:04:00.205Z,99422.83
2023-03-06T20:06:15.407Z,99421.48
2023-03-06T20:08:27.267Z,99421.45
2023-03-06T20:10:40.940Z,99420.13
2023-03-06T20:12:53.096Z,99418.87
2023-03-06T20:15:06.904Z,99414.14
2023-03-06T20:17:19.241Z,99414.75
2023-03-06T20:19:31.839Z,99412.41
2023-03-06T20:21:44.041Z,99414.25
2023-03-06T20:23:58.052Z,99407.98
2023-03-06T20:26:12.645Z,99406.59
2023-03-06T20:28:24.012Z,99408.96
2023-03-06T20:30:38.313Z,99409.13
2023-03-06T20:32:51.688Z,99410.39
2023-03-06T20:35:05.233Z,99412.42
2023-03-06T20:37:16.905Z,99416.47
2023-03-06T20:39:29.207Z,99416.34
2023-03-06T20:41:42.839Z,99414.83
2023-03-06T20:43:54.962Z,99416.88
2023-03-06T20:46:07.046Z,99412.84
2023-03-06T20:48:19.137Z,99411.20
2023-03-06T20:50:30.922Z,99412.66
2023-03-06T20:52:42.614Z,99416.08
2023-03-06T20:54:54.311Z,99414.17
2023-03-06T20:57:06.089Z,99415.59
2023-03-06T20:59:18.414Z,99412.60
2023-03-06T21:01:33.647Z,99411.15
2023-03-06T21:03:46.477Z,99410.98
2023-03-06T21:05:58.436Z,99408.27
2023-03-06T21:08:10.059Z,99412.21
2023-03-06T21:10:22.052Z,99412.95
2023-03-06T21:12:33.613Z,99412.94
2023-03-06T21:14:46.347Z,99409.84
2023-03-06T21:17:01.518Z,99408.98
2023-03-06T21:19:13.111Z,99410.42
2023-03-06T21:21:28.314Z,99413.67
2023-03-06T21:23:43.902Z,99411.45
2023-03-06T21:26:02.981Z,99410.50
2023-03-06T21:28:15.420Z,99409.28
2023-03-06T21:30:29.534Z,99407.70
2023-03-06T21:32:41.596Z,99408.24
2023-03-06T21:34:53.760Z,99413.29
2023-03-06T21:37:05.821Z,99412.73
2023-03-06T21:39:18.263Z,99410.06
2023-03-06T21:41:32.346Z,99409.73
2023-03-06T21:43:45.905Z,99408.50
2023-03-06T21:45:59.391Z,99406.67
2023-03-06T21:48:11.269Z,99406.70
2023-03-06T21:50:27.475Z,99407.01
2023-03-06T21:52:39.858Z,99405.06
2023-03-06T21:54:51.957Z,99406.02
2023-03-06T21:57:03.641Z,99403.83
2023-03-06T21:59:15.533Z,99406.41
2023-03-06T22:01:29.117Z,99401.08
2023-03-06T22:03:40.902Z,99404.40
2023-03-06T22:05:52.849Z,99403.48
2023-03-06T22:08:05.063Z,99404.65
2023-03-06T22:10:16.638Z,99399.41
2023-03-06T22:12:28.320Z,99402.15
2023-03-06T22:14:40.211Z,99402.72
2023-03-06T22:16:52.108Z,99403.55
2023-03-06T22:19:04.167Z,99401.63
2023-03-06T22:21:18.962Z,99402.22
2023-03-06T22:23:31.057Z,99405.77
2023-03-06T22:25:43.156Z,99401.41
2023-03-06T22:27:55.257Z,99403.06
2023-03-06T22:30:08.064Z,99403.08
2023-03-06T22:32:20.012Z,99399.13
2023-03-06T22:34:32.468Z,99397.84
2023-03-06T22:36:44.561Z,99398.42
2023-03-06T22:39:02.002Z,99395.77
2023-03-06T22:41:16.112Z,99394.44
2023-03-06T22:43:28.126Z,99396.31
2023-03-06T22:45:39.853Z,99395.69
2023-03-06T22:47:55.174Z,99395.67
2023-03-06T22:50:10.355Z,99393.44
2023-03-06T22:52:21.948Z,99393.85
2023-03-06T22:54:34.202Z,99397.43
2023-03-06T22:56:45.833Z,99391.91
2023-03-06T22:58:58.126Z,99391.07
2023-03-06T23:01:15.546Z,99390.27
2023-03-06T23:03:27.216Z,99388.20
2023-03-06T23:05:43.220Z,99389.70
2023-03-06T23:07:55.013Z,99386.36
2023-03-06T23:10:07.555Z,99385.69
2023-03-06T23:12:38.252Z,99384.71
2023-03-06T23:15:10.019Z,99383.16
2023-03-06T23:17:40.848Z,99378.96
2023-03-06T23:20:13.537Z,99375.92
2023-03-06T23:22:44.775Z,99372.78
2023-03-06T23:25:16.020Z,99369.30
2023-03-06T23:27:29.564Z,99371.00
2023-03-06T23:29:41.449Z,99371.20
2023-03-06T23:31:53.132Z,99367.90
2023-03-06T23:34:06.147Z,99368.36
2023-03-06T23:36:19.150Z,99366.18
2023-03-06T23:38:31.880Z,99363.48
2023-03-06T23:40:44.079Z,99365.02
2023-03-06T23:42:55.871Z,99364.82
2023-03-06T23:45:08.870Z,99364.89
2023-03-06T23:47:20.784Z,99364.71
2023-03-06T23:49:32.880Z,99368.38
2023-03-06T23:51:44.566Z,99368.10
2023-03-06T23:53:59.267Z,99368.55
2023-03-06T23:56:12.348Z,99374.40
2023-03-06T23:58:23.929Z,99369.53
